Latest Coastal Weather Observations for Arlington Reef

IDQ60701

Issued at 1:25 am EST Saturday 25 October 2014 (issued every 10 minutes, with the page automatically refreshed every 10 minutes)

About coastal observations | Map of coastal stations | Coastal observations for QLD | Marine services | Other Formats
Station Details ID: 200879 Name: ARLINGTON REEF Lat: -16.72 Lon: 146.11 Height: 0.0 m
Data from the previous 72 hours. | See also: Recent months at Arlington Reef
Date/Time
EST
Temp

°C
Wind Pressure Rain
since 9am
mm
Weather Cloud Vis
km
Sea
Height
m
Swell
Dir
 
Speed
knots
Gust
knots
hPa Trend Height
m
Period
s
Dir
25/01:00am - SE 18 21 1017.3 - - - - - - - - -
25/12:30am - SE 17 20 1017.7 - - - - - - - - -
25/12:00am - SE 18 20 1017.9 - - - - - - - - -
 
Date/Time
EST
Temp

°C
Wind Pressure Rain
since 9am
mm
Weather Cloud Vis
km
Sea
Height
m
Swell
Dir
 
Speed
knots
Gust
knots
hPa Trend Height
m
Period
s
Dir
24/11:30pm - SE 19 23 1018.3 - - - - - - - - -
24/11:00pm - ESE 19 22 1018.4 - - - - - - - - -
24/10:30pm - SE 18 22 1018.6 - - - - - - - - -
24/10:00pm - SE 20 25 1018.7 - - - - - - - - -
24/09:30pm - SE 20 25 1018.3 - - - - - - - - -
24/09:00pm - SE 19 23 1017.9 - - - - - - - - -
24/08:30pm - SE 17 22 1017.8 - - - - - - - - -
24/08:00pm - SE 18 21 1017.4 - - - - - - - - -
24/07:30pm - SE 19 22 1017.1 - - - - - - - - -
24/07:00pm - SSE 18 22 1017.0 - - - - - - - - -
24/06:30pm - SSE 18 23 1016.8 - - - - - - - - -
24/06:00pm - SSE 16 20 1016.6 - - - - - - - - -
24/05:30pm - SSE 17 22 1016.4 - - - - - - - - -
24/05:00pm - SSE 19 22 1016.0 - - - - - - - - -
24/04:30pm - SE 18 22 1015.9 - - - - - - - - -
24/04:00pm - SSE 19 24 1015.8 - - - - - - - - -
24/03:30pm - SSE 18 22 1015.9 - - - - - - - - -
24/03:00pm - SSE 17 20 1016.0 - - - - - - - - -
24/02:30pm - SSE 18 20 1016.1 - - - - - - - - -
24/02:00pm - SE 17 21 1016.2 - - - - - - - - -
24/01:30pm - SE 16 19 1016.7 - - - - - - - - -
24/01:00pm - SE 16 19 1017.0 - - - - - - - - -
24/12:30pm - SE 16 20 1017.4 - - - - - - - - -
24/12:00pm - SE 16 18 1017.8 - - - - - - - - -
24/11:30am - SE 16 19 1018.1 - - - - - - - - -
24/11:00am - SE 18 21 1018.4 - - - - - - - - -
24/10:30am - SE 18 21 1018.6 - - - - - - - - -
24/10:00am - SE 18 21 1018.7 - - - - - - - - -
24/09:30am - SE 18 22 1018.7 - - - - - - - - -
24/09:00am - SE 15 20 1018.9 - - - - - - - - -
24/08:30am - SE 17 19 1018.6 - - - - - - - - -
24/08:00am - SE 16 18 1018.5 - - - - - - - - -
24/07:30am - SE 16 19 1018.2 - - - - - - - - -
24/07:00am - SE 17 20 1017.8 - - - - - - - - -
24/06:30am - SE 18 22 1017.4 - - - - - - - - -
24/06:00am - SE 18 22 1017.1 - - - - - - - - -
24/05:30am - SE 17 21 1016.9 - - - - - - - - -
24/05:00am - SE 18 21 1016.5 - - - - - - - - -
24/04:30am - SE 18 21 1016.2 - - - - - - - - -
24/04:00am - ESE 18 21 1016.1 - - - - - - - - -
24/03:30am - SE 16 20 1016.1 - - - - - - - - -
24/03:00am - SE 16 19 1016.2 - - - - - - - - -
24/02:30am - ESE 17 21 1016.2 - - - - - - - - -
24/02:00am - SE 18 21 1016.5 - - - - - - - - -
24/01:30am - ESE 18 21 1016.7 - - - - - - - - -
24/01:00am - ESE 17 19 1017.2 - - - - - - - - -
24/12:30am - SE 19 22 1017.4 - - - - - - - - -
24/12:00am - SE 18 22 1017.8 - - - - - - - - -
 
Date/Time
EST
Temp

°C
Wind Pressure Rain
since 9am
mm
Weather Cloud Vis
km
Sea
Height
m
Swell
Dir
 
Speed
knots
Gust
knots
hPa Trend Height
m
Period
s
Dir
23/11:30pm - SE 19 23 1018.1 - - - - - - - - -
23/11:00pm - SE 19 22 1018.2 - - - - - - - - -
23/10:30pm - SE 19 22 1018.3 - - - - - - - - -
23/10:00pm - SE 18 23 1018.4 - - - - - - - - -
23/09:30pm - SE 20 23 1018.3 - - - - - - - - -
23/09:00pm - SE 20 23 1018.0 - - - - - - - - -
23/08:30pm - SE 19 23 1017.5 - - - - - - - - -
23/08:00pm - SE 20 23 1017.3 - - - - - - - - -
23/07:30pm - SE 20 25 1017.2 - - - - - - - - -
23/07:00pm - SE 19 22 1016.9 - - - - - - - - -
23/06:30pm - SE 17 22 1016.5 - - - - - - - - -
23/06:17pm - SSE 22 32 1016.2 - - - - - - - - -
23/06:00pm - SE 19 22 1016.2 - - - - - - - - -
23/05:30pm - SE 17 21 1016.0 - - - - - - - - -
23/05:00pm - SSE 16 19 1015.7 - - - - - - - - -
23/04:30pm - SSE 18 22 1015.4 - - - - - - - - -
23/04:20pm - SSE 21 26 1015.4 - - - - - - - - -
23/04:00pm - ESE 18 21 1015.2 - - - - - - - - -
23/03:59pm - ESE 18 21 1015.2 - - - - - - - - -
23/03:30pm - SSE 21 24 1015.0 - - - - - - - - -
23/03:00pm - SSE 19 22 1015.2 - - - - - - - - -
23/02:30pm - SSE 21 25 1015.1 - - - - - - - - -
23/02:00pm - SSE 23 27 1015.4 - - - - - - - - -
23/01:30pm - SSE 24 27 1015.6 - - - - - - - - -
23/01:00pm - SSE 25 29 1015.9 - - - - - - - - -
23/12:30pm - SE 21 25 1016.4 - - - - - - - - -
23/12:00pm - SSE 19 23 1016.9 - - - - - - - - -
23/11:44am - SSE 16 27 1017.2 - - - - - - - - -
23/11:30am - SSE 15 19 1017.5 - - - - - - - - -
23/11:00am - SSE 18 22 1017.7 - - - - - - - - -
23/10:30am - SE 21 26 1017.7 - - - - - - - - -
23/10:00am - SSE 21 25 1018.1 - - - - - - - - -
23/09:39am - SSE 20 23 1018.0 - - - - - - - - -
23/09:30am - ESE 17 22 1018.2 - - - - - - - - -
23/09:03am - ESE 23 26 1018.0 - - - - - - - - -
23/09:00am - SSE 20 24 1018.1 - - - - - - - - -
23/08:30am - SSE 18 22 1018.0 - - - - - - - - -
23/08:00am - SE 18 21 1017.8 - - - - - - - - -
23/07:30am - SE 15 18 1017.6 - - - - - - - - -
23/07:00am - SE 14 17 1017.4 - - - - - - - - -
23/06:30am - SE 15 21 1017.0 - - - - - - - - -
23/06:00am - SE 16 19 1016.8 - - - - - - - - -
23/05:30am - SE 16 19 1016.5 - - - - - - - - -
23/05:00am - SE 17 22 1016.2 - - - - - - - - -
23/04:30am - SE 16 20 1016.2 - - - - - - - - -
23/04:00am - SE 17 19 1016.0 - - - - - - - - -
23/03:30am - SE 18 21 1016.0 - - - - - - - - -
23/03:00am - SE 18 21 1016.1 - - - - - - - - -
23/02:30am - SE 18 22 1016.3 - - - - - - - - -
23/02:00am - ESE 19 22 1016.6 - - - - - - - - -
23/01:30am - SE 18 21 1016.9 - - - - - - - - -
23/01:00am - SE 18 20 1017.3 - - - - - - - - -
23/12:30am - ESE 19 22 1017.8 - - - - - - - - -
23/12:00am - SE 18 22 1018.3 - - - - - - - - -
 
Date/Time
EST
Temp

°C
Wind Pressure Rain
since 9am
mm
Weather Cloud Vis
km
Sea
Height
m
Swell
Dir
 
Speed
knots
Gust
knots
hPa Trend Height
m
Period
s
Dir
22/11:30pm - SE 20 23 1018.4 - - - - - - - - -
22/11:00pm - SE 19 23 1018.9 - - - - - - - - -
22/10:30pm - SE 17 21 1019.0 - - - - - - - - -
22/10:00pm - SE 19 23 1019.0 - - - - - - - - -
22/09:30pm - SE 21 25 1018.7 - - - - - - - - -
22/09:00pm - SE 21 26 1018.3 - - - - - - - - -
22/08:30pm - SE 22 26 1018.1 - - - - - - - - -
22/08:00pm - SE 21 25 1017.9 - - - - - - - - -
22/07:30pm - SE 23 27 1017.6 - - - - - - - - -
22/07:00pm - SSE 22 27 1017.2 - - - - - - - - -
22/06:30pm - SE 23 27 1017.0 - - - - - - - - -
22/06:00pm - SE 22 26 1016.8 - - - - - - - - -
22/05:30pm - SSE 21 24 1016.6 - - - - - - - - -
22/05:00pm - SE 22 26 1016.3 - - - - - - - - -
22/04:30pm - SE 22 26 1016.2 - - - - - - - - -
22/04:00pm - SE 23 27 1016.1 - - - - - - - - -
22/03:30pm - SSE 21 25 1016.0 - - - - - - - - -
22/03:00pm - SSE 21 25 1015.9 - - - - - - - - -
22/02:30pm - SSE 21 26 1016.2 - - - - - - - - -
22/02:00pm - SSE 22 26 1016.5 - - - - - - - - -
22/01:30pm - SSE 22 26 1016.7 - - - - - - - - -
22/01:00pm - SSE 21 24 1017.2 - - - - - - - - -
22/12:30pm - SSE 20 23 1017.5 - - - - - - - - -
22/12:00pm - SSE 20 23 1018.0 - - - - - - - - -
22/11:30am - SSE 19 22 1018.4 - - - - - - - - -
22/11:00am - SSE 19 22 1018.6 - - - - - - - - -
22/10:30am - SSE 19 22 1018.8 - - - - - - - - -
22/10:00am - SE 18 20 1019.0 - - - - - - - - -
22/09:30am - SE 16 18 1019.2 - - - - - - - - -
22/09:00am - SE 18 20 1019.0 - - - - - - - - -
22/08:30am - SE 18 23 1018.8 - - - - - - - - -
22/08:00am - SE 18 21 1018.6 - - - - - - - - -
22/07:30am - SE 18 21 1018.2 - - - - - - - - -
22/07:00am - SE 19 23 1017.8 - - - - - - - - -
22/06:30am - SE 20 24 1017.3 - - - - - - - - -
22/06:00am - SE 20 23 1017.0 - - - - - - - - -
22/05:30am - SE 20 23 1016.7 - - - - - - - - -
22/05:00am - SE 19 22 1016.5 - - - - - - - - -
22/04:30am - SE 20 23 1016.3 - - - - - - - - -
22/04:00am - SE 19 23 1016.2 - - - - - - - - -
22/03:30am - SE 20 23 1016.4 - - - - - - - - -
22/03:00am - SE 20 24 1016.5 - - - - - - - - -
22/02:30am - SE 20 24 1016.7 - - - - - - - - -
22/02:00am - SE 20 23 1017.0 - - - - - - - - -
22/01:30am - SE 19 23 1017.5 - - - - - - - - -

Other Formats:

Comma delimited format used in spreadsheet applications
http://www.bom.gov.au/fwo/IDQ60701/IDQ60701.94284.axf

JavaScript Object Notation format (JSON) in row-major order
http://www.bom.gov.au/fwo/IDQ60701/IDQ60701.94284.json